Terminal Aerodrome Forecast
Issued by NWS

Home | Current Version | Previous Version | Text Only | Print | Product List | Glossary On
Versions: 1 2 3 4 5 6 7 8 9 10 11 12 13 14 15 16 17 18 19 20
000
FTUS43 KDMX 232328
TAFMCW
TAF
KMCW 232328Z 2400/2424 VRB03KT P6SM SCT120
     FM240400 13004KT P6SM VCSH SCT050 BKN080
     FM241500 13008KT P6SM BKN120=

USA.gov is the U.S. government's official web portal to all federal, state and local government web resources and services.